sensor_id;sensor_type;location;lat;lon;timestamp;pressure;altitude;pressure_sealevel;temperature;humidity
22206;BME280;11272;50.104;8.754;2023-04-26T00:01:22;100746.38;;;7.18;57.09
22206;BME280;11272;50.104;8.754;2023-04-26T00:03:51;100739.38;;;7.08;57.16
22206;BME280;11272;50.104;8.754;2023-04-26T00:06:36;100743.78;;;7.02;56.77
22206;BME280;11272;50.104;8.754;2023-04-26T00:09:02;100746.41;;;6.96;56.80
22206;BME280;11272;50.104;8.754;2023-04-26T00:11:29;100748.19;;;6.89;56.94
22206;BME280;11272;50.104;8.754;2023-04-26T00:13:54;100741.19;;;6.84;57.25
22206;BME280;11272;50.104;8.754;2023-04-26T00:16:24;100742.91;;;6.78;57.24
22206;BME280;11272;50.104;8.754;2023-04-26T00:18:52;100742.94;;;6.71;57.15
22206;BME280;11272;50.104;8.754;2023-04-26T00:21:23;100749.13;;;6.62;57.60
22206;BME280;11272;50.104;8.754;2023-04-26T00:23:48;100755.25;;;6.58;57.79
22206;BME280;11272;50.104;8.754;2023-04-26T00:26:19;100751.72;;;6.52;58.16
22206;BME280;11272;50.104;8.754;2023-04-26T00:28:48;100756.13;;;6.50;58.32
22206;BME280;11272;50.104;8.754;2023-04-26T00:31:17;100762.28;;;6.43;58.54
22206;BME280;11272;50.104;8.754;2023-04-26T00:33:45;100761.38;;;6.36;58.20
22206;BME280;11272;50.104;8.754;2023-04-26T00:36:18;100767.53;;;6.32;58.97
22206;BME280;11272;50.104;8.754;2023-04-26T00:38:44;100769.31;;;6.27;59.01
22206;BME280;11272;50.104;8.754;2023-04-26T00:41:10;100768.44;;;6.25;59.67
22206;BME280;11272;50.104;8.754;2023-04-26T00:43:36;100768.41;;;6.22;59.37
22206;BME280;11272;50.104;8.754;2023-04-26T00:46:07;100763.13;;;6.20;59.31
22206;BME280;11272;50.104;8.754;2023-04-26T00:48:33;100762.25;;;6.17;59.83
22206;BME280;11272;50.104;8.754;2023-04-26T00:51:03;100769.28;;;6.10;60.00
22206;BME280;11272;50.104;8.754;2023-04-26T00:53:32;100770.16;;;6.06;60.08
22206;BME280;11272;50.104;8.754;2023-04-26T00:56:05;100766.63;;;6.03;59.82
22206;BME280;11272;50.104;8.754;2023-04-26T00:58:32;100763.09;;;5.98;60.29
22206;BME280;11272;50.104;8.754;2023-04-26T01:00:57;100761.31;;;5.90;60.67
22206;BME280;11272;50.104;8.754;2023-04-26T01:03:25;100766.53;;;5.84;60.59
22206;BME280;11272;50.104;8.754;2023-04-26T01:05:53;100769.16;;;5.80;60.52
22206;BME280;11272;50.104;8.754;2023-04-26T01:08:22;100761.25;;;5.80;61.09
22206;BME280;11272;50.104;8.754;2023-04-26T01:10:49;100763.91;;;5.80;60.93
22206;BME280;11272;50.104;8.754;2023-04-26T01:13:18;100767.38;;;5.77;61.06
22206;BME280;11272;50.104;8.754;2023-04-26T01:15:46;100764.75;;;5.71;61.25
22206;BME280;11272;50.104;8.754;2023-04-26T01:18:22;100766.50;;;5.66;61.41
22206;BME280;11272;50.104;8.754;2023-04-26T01:20:55;100762.94;;;5.61;61.10
22206;BME280;11272;50.104;8.754;2023-04-26T01:23:23;100755.94;;;5.60;61.42
22206;BME280;11272;50.104;8.754;2023-04-26T01:25:49;100755.91;;;5.57;61.45
22206;BME280;11272;50.104;8.754;2023-04-26T01:28:15;100762.03;;;5.50;62.16
22206;BME280;11272;50.104;8.754;2023-04-26T01:30:44;100761.16;;;5.49;62.33
22206;BME280;11272;50.104;8.754;2023-04-26T01:33:14;100759.38;;;5.47;62.58
22206;BME280;11272;50.104;8.754;2023-04-26T01:35:42;100761.09;;;5.42;62.50
22206;BME280;11272;50.104;8.754;2023-04-26T01:38:15;100753.16;;;5.34;63.13
22206;BME280;11272;50.104;8.754;2023-04-26T01:40:44;100748.78;;;5.29;62.67
22206;BME280;11272;50.104;8.754;2023-04-26T01:43:12;100753.09;;;5.24;62.79
22206;BME280;11272;50.104;8.754;2023-04-26T01:45:47;100755.72;;;5.21;62.87
22206;BME280;11272;50.104;8.754;2023-04-26T01:48:29;100757.47;;;5.19;63.05
22206;BME280;11272;50.104;8.754;2023-04-26T01:50:59;100760.09;;;5.16;62.88
22206;BME280;11272;50.104;8.754;2023-04-26T01:53:27;100759.19;;;5.14;62.97
22206;BME280;11272;50.104;8.754;2023-04-26T01:55:52;100774.97;;;5.11;63.61
22206;BME280;11272;50.104;8.754;2023-04-26T01:58:28;100766.19;;;5.07;63.73
22206;BME280;11272;50.104;8.754;2023-04-26T02:01:04;100767.91;;;5.00;63.67
22206;BME280;11272;50.104;8.754;2023-04-26T02:03:30;100773.13;;;4.97;64.33
22206;BME280;11272;50.104;8.754;2023-04-26T02:05:56;100777.50;;;4.97;64.27
22206;BME280;11272;50.104;8.754;2023-04-26T02:08:25;100767.84;;;4.94;64.33
22206;BME280;11272;50.104;8.754;2023-04-26T02:10:53;100772.22;;;4.89;64.54
22206;BME280;11272;50.104;8.754;2023-04-26T02:13:24;100776.56;;;4.84;64.85
22206;BME280;11272;50.104;8.754;2023-04-26T02:15:50;100773.94;;;4.84;64.38
22206;BME280;11272;50.104;8.754;2023-04-26T02:18:22;100778.31;;;4.81;64.88
22206;BME280;11272;50.104;8.754;2023-04-26T02:20:49;100778.22;;;4.76;64.94
22206;BME280;11272;50.104;8.754;2023-04-26T02:23:17;100785.22;;;4.73;65.37
22206;BME280;11272;50.104;8.754;2023-04-26T02:25:48;100776.44;;;4.69;65.44
22206;BME280;11272;50.104;8.754;2023-04-26T02:28:15;100775.53;;;4.67;64.95
22206;BME280;11272;50.104;8.754;2023-04-26T02:30:43;100780.78;;;4.64;65.26
22206;BME280;11272;50.104;8.754;2023-04-26T02:33:09;100780.75;;;4.61;65.98
22206;BME280;11272;50.104;8.754;2023-04-26T02:35:35;100778.09;;;4.56;65.75
22206;BME280;11272;50.104;8.754;2023-04-26T02:38:04;100783.31;;;4.52;66.60
22206;BME280;11272;50.104;8.754;2023-04-26T02:40:29;100783.25;;;4.46;66.60
22206;BME280;11272;50.104;8.754;2023-04-26T02:42:57;100779.72;;;4.42;66.05
22206;BME280;11272;50.104;8.754;2023-04-26T02:45:25;100784.94;;;4.38;66.41
22206;BME280;11272;50.104;8.754;2023-04-26T02:47:54;100783.13;;;4.34;66.42
22206;BME280;11272;50.104;8.754;2023-04-26T02:50:23;100779.59;;;4.29;66.36
22206;BME280;11272;50.104;8.754;2023-04-26T02:52:50;100780.44;;;4.24;66.58
22206;BME280;11272;50.104;8.754;2023-04-26T02:55:16;100782.16;;;4.22;66.89
22206;BME280;11272;50.104;8.754;2023-04-26T02:57:44;100781.28;;;4.20;66.74
22206;BME280;11272;50.104;8.754;2023-04-26T03:00:15;100783.88;;;4.19;66.96
22206;BME280;11272;50.104;8.754;2023-04-26T03:02:40;100780.34;;;4.15;67.09
22206;BME280;11272;50.104;8.754;2023-04-26T03:05:07;100777.66;;;4.12;67.31
22206;BME280;11272;50.104;8.754;2023-04-26T03:07:34;100777.66;;;4.09;67.09
22206;BME280;11272;50.104;8.754;2023-04-26T03:10:01;100771.50;;;4.06;67.53
22206;BME280;11272;50.104;8.754;2023-04-26T03:12:27;100780.25;;;4.08;67.46
22206;BME280;11272;50.104;8.754;2023-04-26T03:14:53;100783.78;;;4.08;67.22
22206;BME280;11272;50.104;8.754;2023-04-26T03:17:19;100780.22;;;4.06;67.41
22206;BME280;11272;50.104;8.754;2023-04-26T03:19:44;100779.34;;;4.04;67.44
22206;BME280;11272;50.104;8.754;2023-04-26T03:22:10;100778.44;;;4.02;67.33
22206;BME280;11272;50.104;8.754;2023-04-26T03:24:43;100780.19;;;4.00;67.46
22206;BME280;11272;50.104;8.754;2023-04-26T03:27:10;100775.81;;;3.99;67.78
22206;BME280;11272;50.104;8.754;2023-04-26T03:29:36;100773.16;;;3.98;67.47
22206;BME280;11272;50.104;8.754;2023-04-26T03:32:02;100773.13;;;3.96;67.81
22206;BME280;11272;50.104;8.754;2023-04-26T03:34:27;100775.69;;;3.92;67.74
22206;BME280;11272;50.104;8.754;2023-04-26T03:36:53;100777.44;;;3.88;67.60
22206;BME280;11272;50.104;8.754;2023-04-26T03:39:19;100773.03;;;3.87;67.74
22206;BME280;11272;50.104;8.754;2023-04-26T03:41:47;100771.28;;;3.85;67.89
22206;BME280;11272;50.104;8.754;2023-04-26T03:44:13;100781.72;;;3.81;67.70
22206;BME280;11272;50.104;8.754;2023-04-26T03:46:40;100779.06;;;3.80;68.45
22206;BME280;11272;50.104;8.754;2023-04-26T03:49:06;100777.28;;;3.76;68.56
22206;BME280;11272;50.104;8.754;2023-04-26T03:51:32;100781.63;;;3.74;68.57
22206;BME280;11272;50.104;8.754;2023-04-26T03:53:58;100779.84;;;3.70;68.63
22206;BME280;11272;50.104;8.754;2023-04-26T03:56:24;100782.44;;;3.67;68.12
22206;BME280;11272;50.104;8.754;2023-04-26T03:58:50;100785.91;;;3.66;68.54
22206;BME280;11272;50.104;8.754;2023-04-26T04:01:16;100779.75;;;3.64;68.93
22206;BME280;11272;50.104;8.754;2023-04-26T04:03:42;100773.66;;;3.65;68.55
22206;BME280;11272;50.104;8.754;2023-04-26T04:06:08;100781.53;;;3.66;68.81
22206;BME280;11272;50.104;8.754;2023-04-26T04:08:33;100780.66;;;3.66;69.03
22206;BME280;11272;50.104;8.754;2023-04-26T04:11:02;100782.44;;;3.67;69.08
22206;BME280;11272;50.104;8.754;2023-04-26T04:13:28;100783.28;;;3.66;69.09
22206;BME280;11272;50.104;8.754;2023-04-26T04:15:54;100785.00;;;3.62;68.85
22206;BME280;11272;50.104;8.754;2023-04-26T04:18:20;100777.97;;;3.60;69.08
22206;BME280;11272;50.104;8.754;2023-04-26T04:20:46;100779.72;;;3.58;69.53
22206;BME280;11272;50.104;8.754;2023-04-26T04:23:12;100776.22;;;3.60;69.55
22206;BME280;11272;50.104;8.754;2023-04-26T04:25:39;100778.88;;;3.62;69.59
22206;BME280;11272;50.104;8.754;2023-04-26T04:28:08;100783.25;;;3.63;69.09
22206;BME280;11272;50.104;8.754;2023-04-26T04:30:33;100780.63;;;3.63;69.74
22206;BME280;11272;50.104;8.754;2023-04-26T04:32:59;100785.88;;;3.64;69.74
22206;BME280;11272;50.104;8.754;2023-04-26T04:35:25;100795.56;;;3.67;69.63
22206;BME280;11272;50.104;8.754;2023-04-26T04:37:55;100791.19;;;3.69;69.75
22206;BME280;11272;50.104;8.754;2023-04-26T04:40:24;100797.34;;;3.68;69.71
22206;BME280;11272;50.104;8.754;2023-04-26T04:42:51;100796.44;;;3.69;70.01
22206;BME280;11272;50.104;8.754;2023-04-26T04:45:19;100800.84;;;3.68;70.18
22206;BME280;11272;50.104;8.754;2023-04-26T04:47:47;100808.72;;;3.70;69.89
22206;BME280;11272;50.104;8.754;2023-04-26T04:50:12;100803.47;;;3.70;70.09
22206;BME280;11272;50.104;8.754;2023-04-26T04:52:39;100808.78;;;3.76;70.40
22206;BME280;11272;50.104;8.754;2023-04-26T04:55:05;100819.41;;;3.84;70.38
22206;BME280;11272;50.104;8.754;2023-04-26T04:57:32;100817.84;;;3.99;70.90
22206;BME280;11272;50.104;8.754;2023-04-26T04:59:58;100815.38;;;4.14;71.28
22206;BME280;11272;50.104;8.754;2023-04-26T05:02:24;100825.19;;;4.34;70.50
22206;BME280;11272;50.104;8.754;2023-04-26T05:04:51;100825.41;;;4.53;70.71
22206;BME280;11272;50.104;8.754;2023-04-26T05:07:16;100831.69;;;4.72;70.63
22206;BME280;11272;50.104;8.754;2023-04-26T05:09:43;100826.59;;;4.90;70.61
22206;BME280;11272;50.104;8.754;2023-04-26T05:12:09;100825.84;;;5.09;70.67
22206;BME280;11272;50.104;8.754;2023-04-26T05:14:35;100828.63;;;5.28;70.62
22206;BME280;11272;50.104;8.754;2023-04-26T05:17:01;100828.72;;;5.47;70.73
22206;BME280;11272;50.104;8.754;2023-04-26T05:19:27;100825.31;;;5.67;69.96
22206;BME280;11272;50.104;8.754;2023-04-26T05:21:55;100828.03;;;5.85;69.81
22206;BME280;11272;50.104;8.754;2023-04-26T05:24:21;100831.66;;;6.07;69.85
22206;BME280;11272;50.104;8.754;2023-04-26T05:26:47;100840.50;;;6.24;69.46
22206;BME280;11272;50.104;8.754;2023-04-26T05:29:31;100836.16;;;6.46;69.21
22206;BME280;11272;50.104;8.754;2023-04-26T05:32:14;100845.84;;;6.69;68.64
22206;BME280;11272;50.104;8.754;2023-04-26T05:34:49;100833.56;;;6.84;68.57
22206;BME280;11272;50.104;8.754;2023-04-26T05:37:16;100838.81;;;7.02;68.40
22206;BME280;11272;50.104;8.754;2023-04-26T05:39:42;100842.31;;;7.22;67.79
22206;BME280;11272;50.104;8.754;2023-04-26T05:42:09;100843.19;;;7.41;67.03
22206;BME280;11272;50.104;8.754;2023-04-26T05:44:35;100849.31;;;7.56;67.07
22206;BME280;11272;50.104;8.754;2023-04-26T05:47:01;100843.97;;;7.70;66.52
22206;BME280;11272;50.104;8.754;2023-04-26T05:49:31;100852.78;;;7.80;65.69
22206;BME280;11272;50.104;8.754;2023-04-26T05:52:04;100843.94;;;7.84;65.40
22206;BME280;11272;50.104;8.754;2023-04-26T05:54:29;100853.56;;;7.98;65.06
22206;BME280;11272;50.104;8.754;2023-04-26T05:56:55;100838.50;;;8.17;64.21
22206;BME280;11272;50.104;8.754;2023-04-26T05:59:21;100846.34;;;8.37;63.91
22206;BME280;11272;50.104;8.754;2023-04-26T06:01:47;100840.94;;;8.60;63.41
22206;BME280;11272;50.104;8.754;2023-04-26T06:04:12;100843.41;;;8.81;63.27
22206;BME280;11272;50.104;8.754;2023-04-26T06:06:47;100848.53;;;9.02;63.03
22206;BME280;11272;50.104;8.754;2023-04-26T06:09:12;100841.25;;;9.25;62.84
22206;BME280;11272;50.104;8.754;2023-04-26T06:11:38;100848.09;;;9.51;61.90
22206;BME280;11272;50.104;8.754;2023-04-26T06:14:03;100849.53;;;9.78;61.53
22206;BME280;11272;50.104;8.754;2023-04-26T06:16:29;100859.81;;;10.05;61.11
22206;BME280;11272;50.104;8.754;2023-04-26T06:18:54;100855.06;;;10.31;59.98
22206;BME280;11272;50.104;8.754;2023-04-26T06:21:20;100860.06;;;10.54;59.37
22206;BME280;11272;50.104;8.754;2023-04-26T06:23:48;100858.84;;;10.76;58.67
22206;BME280;11272;50.104;8.754;2023-04-26T06:26:16;100855.88;;;10.96;58.24
22206;BME280;11272;50.104;8.754;2023-04-26T06:28:42;100844.78;;;11.22;57.75
22206;BME280;11272;50.104;8.754;2023-04-26T06:31:08;100851.47;;;11.47;56.82
22206;BME280;11272;50.104;8.754;2023-04-26T06:33:37;100853.63;;;11.74;56.25
22206;BME280;11272;50.104;8.754;2023-04-26T06:36:03;100862.13;;;11.93;55.39
22206;BME280;11272;50.104;8.754;2023-04-26T06:38:28;100855.44;;;12.17;54.98
22206;BME280;11272;50.104;8.754;2023-04-26T06:40:55;100860.22;;;12.41;54.41
22206;BME280;11272;50.104;8.754;2023-04-26T06:43:21;100856.06;;;12.66;53.68
22206;BME280;11272;50.104;8.754;2023-04-26T06:46:09;100851.34;;;12.79;52.66
22206;BME280;11272;50.104;8.754;2023-04-26T06:48:34;100859.81;;;12.96;52.11
22206;BME280;11272;50.104;8.754;2023-04-26T06:51:06;100852.94;;;13.23;51.65
22206;BME280;11272;50.104;8.754;2023-04-26T06:53:32;100858.53;;;13.46;51.10
22206;BME280;11272;50.104;8.754;2023-04-26T06:55:58;100858.06;;;13.65;50.35
22206;BME280;11272;50.104;8.754;2023-04-26T06:58:23;100852.97;;;13.88;49.63
22206;BME280;11272;50.104;8.754;2023-04-26T07:00:49;100858.91;;;13.99;49.24
22206;BME280;11272;50.104;8.754;2023-04-26T07:03:15;100850.44;;;14.14;49.02
22206;BME280;11272;50.104;8.754;2023-04-26T07:05:41;100851.72;;;14.30;48.07
22206;BME280;11272;50.104;8.754;2023-04-26T07:08:06;100853.81;;;14.50;48.00
22206;BME280;11272;50.104;8.754;2023-04-26T07:10:32;100847.66;;;14.76;47.27
22206;BME280;11272;50.104;8.754;2023-04-26T07:12:57;100840.34;;;15.09;47.48
22206;BME280;11272;50.104;8.754;2023-04-26T07:15:23;100849.22;;;15.36;46.75
22206;BME280;11272;50.104;8.754;2023-04-26T07:17:49;100847.75;;;15.53;45.32
22206;BME280;11272;50.104;8.754;2023-04-26T07:20:14;100846.56;;;15.62;45.11
22206;BME280;11272;50.104;8.754;2023-04-26T07:22:44;100844.16;;;15.79;44.91
22206;BME280;11272;50.104;8.754;2023-04-26T07:25:10;100846.25;;;15.94;43.92
22206;BME280;11272;50.104;8.754;2023-04-26T07:27:36;100850.13;;;16.11;43.55
22206;BME280;11272;50.104;8.754;2023-04-26T07:30:02;100835.41;;;16.22;42.97
22206;BME280;11272;50.104;8.754;2023-04-26T07:32:28;100840.72;;;16.24;42.55
22206;BME280;11272;50.104;8.754;2023-04-26T07:34:53;100841.91;;;16.38;42.39
22206;BME280;11272;50.104;8.754;2023-04-26T07:37:19;100842.91;;;16.59;41.94
22206;BME280;11272;50.104;8.754;2023-04-26T07:39:45;100828.94;;;16.95;41.23
22206;BME280;11272;50.104;8.754;2023-04-26T07:42:11;100833.97;;;17.24;40.73
22206;BME280;11272;50.104;8.754;2023-04-26T07:44:36;100829.16;;;17.52;40.23
22206;BME280;11272;50.104;8.754;2023-04-26T07:47:03;100830.53;;;17.83;39.55
22206;BME280;11272;50.104;8.754;2023-04-26T07:49:29;100831.72;;;17.96;38.53
22206;BME280;11272;50.104;8.754;2023-04-26T07:51:55;100827.81;;;18.03;38.41
22206;BME280;11272;50.104;8.754;2023-04-26T07:54:22;100826.66;;;18.08;37.60
22206;BME280;11272;50.104;8.754;2023-04-26T07:56:48;100821.72;;;17.99;37.26
22206;BME280;11272;50.104;8.754;2023-04-26T07:59:13;100826.34;;;17.96;37.19
22206;BME280;11272;50.104;8.754;2023-04-26T08:01:39;100823.63;;;18.16;36.90
22206;BME280;11272;50.104;8.754;2023-04-26T08:04:04;100813.22;;;18.46;36.65
22206;BME280;11272;50.104;8.754;2023-04-26T08:06:30;100816.78;;;18.84;36.25
22206;BME280;11272;50.104;8.754;2023-04-26T08:08:56;100815.41;;;19.28;35.92
22206;BME280;11272;50.104;8.754;2023-04-26T08:11:21;100823.22;;;19.69;35.08
22206;BME280;11272;50.104;8.754;2023-04-26T08:13:47;100814.44;;;19.98;33.87
22206;BME280;11272;50.104;8.754;2023-04-26T08:16:13;100811.69;;;20.15;33.76
22206;BME280;11272;50.104;8.754;2023-04-26T08:18:39;100806.97;;;20.52;32.67
22206;BME280;11272;50.104;8.754;2023-04-26T08:21:05;100821.53;;;20.65;31.92
22206;BME280;11272;50.104;8.754;2023-04-26T08:23:34;100811.06;;;20.90;31.62
22206;BME280;11272;50.104;8.754;2023-04-26T08:26:00;100808.31;;;21.22;31.57
22206;BME280;11272;50.104;8.754;2023-04-26T08:28:26;100810.06;;;21.53;31.49
22206;BME280;11272;50.104;8.754;2023-04-26T08:30:52;100813.47;;;21.70;30.36
22206;BME280;11272;50.104;8.754;2023-04-26T08:33:17;100810.31;;;21.78;29.66
22206;BME280;11272;50.104;8.754;2023-04-26T08:35:43;100806.94;;;21.45;28.92
22206;BME280;11272;50.104;8.754;2023-04-26T08:38:09;100805.34;;;21.11;29.50
22206;BME280;11272;50.104;8.754;2023-04-26T08:40:35;100811.63;;;21.27;29.47
22206;BME280;11272;50.104;8.754;2023-04-26T08:43:01;100813.16;;;21.47;29.29
22206;BME280;11272;50.104;8.754;2023-04-26T08:45:27;100811.03;;;21.22;29.32
22206;BME280;11272;50.104;8.754;2023-04-26T08:47:56;100808.59;;;21.17;29.37
22206;BME280;11272;50.104;8.754;2023-04-26T08:50:23;100801.44;;;21.16;28.86
22206;BME280;11272;50.104;8.754;2023-04-26T08:52:50;100797.56;;;20.90;28.94
22206;BME280;11272;50.104;8.754;2023-04-26T08:55:17;100797.44;;;21.08;29.14
22206;BME280;11272;50.104;8.754;2023-04-26T08:57:48;100796.00;;;21.32;28.95
22206;BME280;11272;50.104;8.754;2023-04-26T09:00:18;100790.81;;;21.13;28.31
22206;BME280;11272;50.104;8.754;2023-04-26T09:02:49;100788.94;;;20.68;28.49
22206;BME280;11272;50.104;8.754;2023-04-26T09:10:55;100786.13;;;21.17;28.37
22206;BME280;11272;50.104;8.754;2023-04-26T09:13:26;100781.03;;;20.81;28.75
22206;BME280;11272;50.104;8.754;2023-04-26T09:15:53;100779.59;;;20.89;28.83
22206;BME280;11272;50.104;8.754;2023-04-26T09:18:21;100777.75;;;21.06;28.47
22206;BME280;11272;50.104;8.754;2023-04-26T09:21:07;100777.69;;;20.91;28.75
22206;BME280;11272;50.104;8.754;2023-04-26T09:23:33;100784.78;;;20.63;28.26
22206;BME280;11272;50.104;8.754;2023-04-26T09:26:19;100784.28;;;19.74;28.81
22206;BME280;11272;50.104;8.754;2023-04-26T09:28:45;100781.44;;;19.26;29.16
22206;BME280;11272;50.104;8.754;2023-04-26T09:31:34;100796.00;;;19.05;29.62
22206;BME280;11272;50.104;8.754;2023-04-26T09:34:02;100795.31;;;19.35;29.43
22206;BME280;11272;50.104;8.754;2023-04-26T09:36:28;100797.41;;;19.48;29.43
22206;BME280;11272;50.104;8.754;2023-04-26T09:38:53;100791.66;;;19.19;29.15
22206;BME280;11272;50.104;8.754;2023-04-26T09:41:19;100792.59;;;19.01;29.86
22206;BME280;11272;50.104;8.754;2023-04-26T09:43:45;100787.34;;;18.98;29.77
22206;BME280;11272;50.104;8.754;2023-04-26T09:46:21;100783.56;;;19.19;30.16
22206;BME280;11272;50.104;8.754;2023-04-26T09:48:59;100781.69;;;19.56;29.88
22206;BME280;11272;50.104;8.754;2023-04-26T09:51:25;100781.47;;;19.60;29.55
22206;BME280;11272;50.104;8.754;2023-04-26T09:53:51;100780.72;;;19.40;29.40
22206;BME280;11272;50.104;8.754;2023-04-26T09:56:18;100775.81;;;19.13;29.45
22206;BME280;11272;50.104;8.754;2023-04-26T10:01:17;100775.94;;;18.38;29.80
22206;BME280;11272;50.104;8.754;2023-04-26T10:03:46;100780.31;;;18.03;30.38
22206;BME280;11272;50.104;8.754;2023-04-26T10:06:12;100773.91;;;17.87;30.46
22206;BME280;11272;50.104;8.754;2023-04-26T10:08:39;100775.56;;;17.90;30.97
22206;BME280;11272;50.104;8.754;2023-04-26T10:11:06;100766.66;;;18.08;30.96
22206;BME280;11272;50.104;8.754;2023-04-26T10:13:39;100765.34;;;17.98;30.71
22206;BME280;11272;50.104;8.754;2023-04-26T10:16:06;100761.28;;;17.69;30.87
22206;BME280;11272;50.104;8.754;2023-04-26T10:18:32;100768.63;;;17.45;31.28
22206;BME280;11272;50.104;8.754;2023-04-26T10:21:26;100762.22;;;17.27;31.38
22206;BME280;11272;50.104;8.754;2023-04-26T10:23:53;100763.88;;;17.10;31.83
22206;BME280;11272;50.104;8.754;2023-04-26T10:26:53;100764.78;;;16.89;31.77
22206;BME280;11272;50.104;8.754;2023-04-26T10:29:30;100770.38;;;16.62;31.83
22206;BME280;11272;50.104;8.754;2023-04-26T10:32:11;100778.81;;;16.52;32.16
22206;BME280;11272;50.104;8.754;2023-04-26T10:34:41;100758.84;;;16.60;32.44
22206;BME280;11272;50.104;8.754;2023-04-26T10:37:13;100766.03;;;16.58;32.36
22206;BME280;11272;50.104;8.754;2023-04-26T10:39:40;100760.66;;;16.36;32.95
22206;BME280;11272;50.104;8.754;2023-04-26T10:42:35;100760.38;;;16.44;33.06
22206;BME280;11272;50.104;8.754;2023-04-26T10:47:49;100740.81;;;17.06;32.52
22206;BME280;11272;50.104;8.754;2023-04-26T10:50:14;100748.56;;;17.52;32.44
22206;BME280;11272;50.104;8.754;2023-04-26T10:53:04;100750.81;;;18.21;31.99
22206;BME280;11272;50.104;8.754;2023-04-26T10:55:40;100734.19;;;18.48;31.76
22206;BME280;11272;50.104;8.754;2023-04-26T10:58:27;100733.91;;;18.73;31.42
22206;BME280;11272;50.104;8.754;2023-04-26T11:01:17;100730.72;;;18.82;31.06
22206;BME280;11272;50.104;8.754;2023-04-26T11:04:04;100722.19;;;18.74;30.91
22206;BME280;11272;50.104;8.754;2023-04-26T11:06:54;100726.22;;;18.47;30.91
22206;BME280;11272;50.104;8.754;2023-04-26T11:11:57;100719.72;;;18.15;31.17
22206;BME280;11272;50.104;8.754;2023-04-26T11:14:23;100722.03;;;18.04;31.25
22206;BME280;11272;50.104;8.754;2023-04-26T11:16:49;100713.09;;;18.03;31.57
22206;BME280;11272;50.104;8.754;2023-04-26T11:19:15;100722.16;;;18.01;31.14
22206;BME280;11272;50.104;8.754;2023-04-26T11:21:40;100730.84;;;17.89;31.51
22206;BME280;11272;50.104;8.754;2023-04-26T11:24:06;100723.19;;;17.80;31.33
22206;BME280;11272;50.104;8.754;2023-04-26T11:26:32;100725.66;;;17.65;31.22
22206;BME280;11272;50.104;8.754;2023-04-26T11:29:01;100724.78;;;17.24;31.56
22206;BME280;11272;50.104;8.754;2023-04-26T11:31:29;100713.78;;;17.10;31.98
22206;BME280;11272;50.104;8.754;2023-04-26T11:34:02;100710.63;;;17.41;31.91
22206;BME280;11272;50.104;8.754;2023-04-26T11:36:28;100715.50;;;17.91;31.65
22206;BME280;11272;50.104;8.754;2023-04-26T11:38:54;100708.31;;;18.65;30.86
22206;BME280;11272;50.104;8.754;2023-04-26T11:41:21;100710.09;;;19.17;30.43
22206;BME280;11272;50.104;8.754;2023-04-26T11:43:48;100696.47;;;19.70;29.90
22206;BME280;11272;50.104;8.754;2023-04-26T11:46:13;100701.03;;;20.48;29.68
22206;BME280;11272;50.104;8.754;2023-04-26T11:48:39;100690.94;;;21.41;28.77
22206;BME280;11272;50.104;8.754;2023-04-26T11:51:07;100695.78;;;22.34;27.35
22206;BME280;11272;50.104;8.754;2023-04-26T11:53:37;100682.13;;;22.77;26.28
22206;BME280;11272;50.104;8.754;2023-04-26T11:56:17;100678.06;;;23.09;26.17
22206;BME280;11272;50.104;8.754;2023-04-26T11:58:48;100680.06;;;23.58;25.15
22206;BME280;11272;50.104;8.754;2023-04-26T12:01:27;100671.78;;;23.97;24.35
22206;BME280;11272;50.104;8.754;2023-04-26T12:03:54;100675.56;;;24.44;23.73
22206;BME280;11272;50.104;8.754;2023-04-26T12:06:28;100666.88;;;24.39;23.51
22206;BME280;11272;50.104;8.754;2023-04-26T12:08:55;100662.88;;;23.95;23.61
22206;BME280;11272;50.104;8.754;2023-04-26T12:11:21;100670.28;;;23.30;23.55
22206;BME280;11272;50.104;8.754;2023-04-26T12:13:46;100671.50;;;22.74;24.13
22206;BME280;11272;50.104;8.754;2023-04-26T12:16:12;100681.19;;;22.63;24.19
22206;BME280;11272;50.104;8.754;2023-04-26T12:18:39;100680.97;;;22.66;24.20
22206;BME280;11272;50.104;8.754;2023-04-26T12:21:05;100672.97;;;22.65;24.29
22206;BME280;11272;50.104;8.754;2023-04-26T12:23:38;100671.28;;;22.23;24.32
22206;BME280;11272;50.104;8.754;2023-04-26T12:26:05;100677.63;;;21.67;24.71
22206;BME280;11272;50.104;8.754;2023-04-26T12:28:31;100673.56;;;21.31;25.36
22206;BME280;11272;50.104;8.754;2023-04-26T12:30:57;100666.50;;;21.15;25.64
22206;BME280;11272;50.104;8.754;2023-04-26T12:33:22;100647.22;;;21.49;25.56
22206;BME280;11272;50.104;8.754;2023-04-26T12:35:49;100660.13;;;22.01;25.61
22206;BME280;11272;50.104;8.754;2023-04-26T12:38:17;100652.78;;;22.03;25.30
22206;BME280;11272;50.104;8.754;2023-04-26T12:40:43;100664.25;;;22.06;25.18
22206;BME280;11272;50.104;8.754;2023-04-26T12:43:09;100666.88;;;21.94;24.99
22206;BME280;11272;50.104;8.754;2023-04-26T12:45:35;100660.31;;;21.83;25.00
22206;BME280;11272;50.104;8.754;2023-04-26T12:48:00;100657.31;;;22.16;25.37
22206;BME280;11272;50.104;8.754;2023-04-26T12:50:26;100657.97;;;22.74;24.89
22206;BME280;11272;50.104;8.754;2023-04-26T12:52:53;100659.56;;;23.28;24.50
22206;BME280;11272;50.104;8.754;2023-04-26T12:55:19;100651.66;;;23.50;24.13
22206;BME280;11272;50.104;8.754;2023-04-26T12:57:45;100652.28;;;23.67;23.92
22206;BME280;11272;50.104;8.754;2023-04-26T13:00:14;100646.66;;;24.06;23.85
22206;BME280;11272;50.104;8.754;2023-04-26T13:02:41;100656.47;;;24.32;23.36
22206;BME280;11272;50.104;8.754;2023-04-26T13:05:07;100649.72;;;24.38;23.18
22206;BME280;11272;50.104;8.754;2023-04-26T13:07:34;100653.50;;;24.24;22.94
22206;BME280;11272;50.104;8.754;2023-04-26T13:10:02;100645.16;;;24.02;22.92
22206;BME280;11272;50.104;8.754;2023-04-26T13:12:28;100649.91;;;23.75;22.82
22206;BME280;11272;50.104;8.754;2023-04-26T13:14:54;100648.16;;;23.36;23.09